sensor_id;sensor_type;location;lat;lon;timestamp;temperature;humidity
7934;DHT22;4012;48.896;9.192;2023-07-29T00:00:32;17.90;99.90
7934;DHT22;4012;48.896;9.192;2023-07-29T00:02:58;17.90;99.90
7934;DHT22;4012;48.896;9.192;2023-07-29T00:05:23;17.90;99.90
7934;DHT22;4012;48.896;9.192;2023-07-29T00:07:49;17.90;99.90
7934;DHT22;4012;48.896;9.192;2023-07-29T00:10:15;17.90;99.90
7934;DHT22;4012;48.896;9.192;2023-07-29T00:12:41;17.90;99.90
7934;DHT22;4012;48.896;9.192;2023-07-29T00:15:07;17.90;99.90
7934;DHT22;4012;48.896;9.192;2023-07-29T00:17:33;17.90;99.90
7934;DHT22;4012;48.896;9.192;2023-07-29T00:19:59;17.90;99.90
7934;DHT22;4012;48.896;9.192;2023-07-29T00:22:24;17.90;99.90
7934;DHT22;4012;48.896;9.192;2023-07-29T00:24:53;18.00;99.90
7934;DHT22;4012;48.896;9.192;2023-07-29T00:27:23;18.00;99.90
7934;DHT22;4012;48.896;9.192;2023-07-29T00:29:49;17.90;99.90
7934;DHT22;4012;48.896;9.192;2023-07-29T00:32:14;18.00;99.90
7934;DHT22;4012;48.896;9.192;2023-07-29T00:34:40;18.00;99.90
7934;DHT22;4012;48.896;9.192;2023-07-29T00:37:06;18.00;99.90
7934;DHT22;4012;48.896;9.192;2023-07-29T00:39:34;18.00;99.90
7934;DHT22;4012;48.896;9.192;2023-07-29T00:42:00;18.00;99.90
7934;DHT22;4012;48.896;9.192;2023-07-29T00:44:25;18.10;99.90
7934;DHT22;4012;48.896;9.192;2023-07-29T00:46:54;18.10;99.90
7934;DHT22;4012;48.896;9.192;2023-07-29T00:49:21;18.00;99.90
7934;DHT22;4012;48.896;9.192;2023-07-29T00:51:47;18.00;99.90
7934;DHT22;4012;48.896;9.192;2023-07-29T00:54:13;18.10;99.90
7934;DHT22;4012;48.896;9.192;2023-07-29T00:56:39;18.10;99.90
7934;DHT22;4012;48.896;9.192;2023-07-29T00:59:05;18.10;99.90
7934;DHT22;4012;48.896;9.192;2023-07-29T01:01:31;18.10;99.90
7934;DHT22;4012;48.896;9.192;2023-07-29T01:03:57;18.10;99.90
7934;DHT22;4012;48.896;9.192;2023-07-29T01:14:55;18.10;99.90
7934;DHT22;4012;48.896;9.192;2023-07-29T01:17:29;18.20;99.90
7934;DHT22;4012;48.896;9.192;2023-07-29T01:22:29;18.20;99.90
7934;DHT22;4012;48.896;9.192;2023-07-29T01:24:57;18.10;99.90
7934;DHT22;4012;48.896;9.192;2023-07-29T01:27:23;18.10;99.90
7934;DHT22;4012;48.896;9.192;2023-07-29T01:29:48;18.10;99.90
7934;DHT22;4012;48.896;9.192;2023-07-29T01:32:19;18.10;99.90
7934;DHT22;4012;48.896;9.192;2023-07-29T01:34:48;18.10;99.90
7934;DHT22;4012;48.896;9.192;2023-07-29T01:37:21;18.10;99.90
7934;DHT22;4012;48.896;9.192;2023-07-29T01:39:49;18.10;99.90
7934;DHT22;4012;48.896;9.192;2023-07-29T01:42:16;18.10;99.90
7934;DHT22;4012;48.896;9.192;2023-07-29T01:44:42;18.10;99.90
7934;DHT22;4012;48.896;9.192;2023-07-29T01:47:08;18.10;99.90
7934;DHT22;4012;48.896;9.192;2023-07-29T01:49:34;18.10;99.90
7934;DHT22;4012;48.896;9.192;2023-07-29T01:51:59;18.00;99.90
7934;DHT22;4012;48.896;9.192;2023-07-29T01:54:25;18.00;99.90
7934;DHT22;4012;48.896;9.192;2023-07-29T01:56:51;18.00;99.90
7934;DHT22;4012;48.896;9.192;2023-07-29T01:59:16;18.00;99.90
7934;DHT22;4012;48.896;9.192;2023-07-29T02:01:42;18.00;99.90
7934;DHT22;4012;48.896;9.192;2023-07-29T02:04:08;18.00;99.90
7934;DHT22;4012;48.896;9.192;2023-07-29T02:06:34;18.00;99.90
7934;DHT22;4012;48.896;9.192;2023-07-29T02:08:59;18.00;99.90
7934;DHT22;4012;48.896;9.192;2023-07-29T02:11:25;17.90;99.90
7934;DHT22;4012;48.896;9.192;2023-07-29T02:13:54;18.00;99.90
7934;DHT22;4012;48.896;9.192;2023-07-29T02:16:20;18.00;99.90
7934;DHT22;4012;48.896;9.192;2023-07-29T02:18:46;18.00;99.90
7934;DHT22;4012;48.896;9.192;2023-07-29T02:21:11;18.00;99.90
7934;DHT22;4012;48.896;9.192;2023-07-29T02:23:37;18.00;99.90
7934;DHT22;4012;48.896;9.192;2023-07-29T02:26:02;18.00;99.90
7934;DHT22;4012;48.896;9.192;2023-07-29T02:28:28;18.00;99.90
7934;DHT22;4012;48.896;9.192;2023-07-29T02:31:17;18.10;99.90
7934;DHT22;4012;48.896;9.192;2023-07-29T02:33:43;18.10;99.90
7934;DHT22;4012;48.896;9.192;2023-07-29T02:36:09;18.10;99.90
7934;DHT22;4012;48.896;9.192;2023-07-29T02:38:35;18.10;99.90
7934;DHT22;4012;48.896;9.192;2023-07-29T02:41:00;18.10;99.90
7934;DHT22;4012;48.896;9.192;2023-07-29T02:43:26;18.10;99.90
7934;DHT22;4012;48.896;9.192;2023-07-29T02:45:51;18.10;99.90
7934;DHT22;4012;48.896;9.192;2023-07-29T02:48:17;18.00;99.90
7934;DHT22;4012;48.896;9.192;2023-07-29T02:50:42;18.00;99.90
7934;DHT22;4012;48.896;9.192;2023-07-29T02:53:08;18.00;99.90
7934;DHT22;4012;48.896;9.192;2023-07-29T02:55:34;18.00;99.90
7934;DHT22;4012;48.896;9.192;2023-07-29T02:57:59;18.00;99.90
7934;DHT22;4012;48.896;9.192;2023-07-29T03:00:25;18.00;99.90
7934;DHT22;4012;48.896;9.192;2023-07-29T03:02:50;17.90;99.90
7934;DHT22;4012;48.896;9.192;2023-07-29T03:05:16;18.00;99.90
7934;DHT22;4012;48.896;9.192;2023-07-29T03:07:42;17.90;99.90
7934;DHT22;4012;48.896;9.192;2023-07-29T03:10:08;17.90;99.90
7934;DHT22;4012;48.896;9.192;2023-07-29T03:12:33;18.00;99.90
7934;DHT22;4012;48.896;9.192;2023-07-29T03:14:59;18.00;99.90
7934;DHT22;4012;48.896;9.192;2023-07-29T03:17:25;18.00;99.90
7934;DHT22;4012;48.896;9.192;2023-07-29T03:19:52;17.90;99.90
7934;DHT22;4012;48.896;9.192;2023-07-29T03:22:17;17.90;99.90
7934;DHT22;4012;48.896;9.192;2023-07-29T03:24:43;17.80;99.90
7934;DHT22;4012;48.896;9.192;2023-07-29T03:27:09;17.80;99.90
7934;DHT22;4012;48.896;9.192;2023-07-29T03:29:35;17.80;99.90
7934;DHT22;4012;48.896;9.192;2023-07-29T03:32:01;17.70;99.90
7934;DHT22;4012;48.896;9.192;2023-07-29T03:34:29;17.70;99.90
7934;DHT22;4012;48.896;9.192;2023-07-29T03:36:55;17.70;99.90
7934;DHT22;4012;48.896;9.192;2023-07-29T03:39:21;17.70;99.90
7934;DHT22;4012;48.896;9.192;2023-07-29T03:41:46;17.80;99.90
7934;DHT22;4012;48.896;9.192;2023-07-29T03:44:12;17.80;99.90
7934;DHT22;4012;48.896;9.192;2023-07-29T03:46:37;17.80;99.90
7934;DHT22;4012;48.896;9.192;2023-07-29T03:49:03;17.80;99.90
7934;DHT22;4012;48.896;9.192;2023-07-29T03:51:28;17.90;99.90
7934;DHT22;4012;48.896;9.192;2023-07-29T03:53:54;17.90;99.90
7934;DHT22;4012;48.896;9.192;2023-07-29T03:56:20;17.90;99.90
7934;DHT22;4012;48.896;9.192;2023-07-29T03:58:46;18.00;99.90
7934;DHT22;4012;48.896;9.192;2023-07-29T04:01:13;17.90;99.90
7934;DHT22;4012;48.896;9.192;2023-07-29T04:03:39;18.00;99.90
7934;DHT22;4012;48.896;9.192;2023-07-29T04:06:04;18.00;99.90
7934;DHT22;4012;48.896;9.192;2023-07-29T04:08:30;18.00;99.90
7934;DHT22;4012;48.896;9.192;2023-07-29T04:10:56;18.00;99.90
7934;DHT22;4012;48.896;9.192;2023-07-29T04:13:21;18.00;99.90
7934;DHT22;4012;48.896;9.192;2023-07-29T04:15:47;18.00;99.90
7934;DHT22;4012;48.896;9.192;2023-07-29T04:18:12;18.00;99.90
7934;DHT22;4012;48.896;9.192;2023-07-29T04:20:38;17.90;99.90
7934;DHT22;4012;48.896;9.192;2023-07-29T04:23:03;17.90;99.90
7934;DHT22;4012;48.896;9.192;2023-07-29T04:25:29;18.00;99.90
7934;DHT22;4012;48.896;9.192;2023-07-29T04:27:55;17.90;99.90
7934;DHT22;4012;48.896;9.192;2023-07-29T04:30:23;17.90;99.90
7934;DHT22;4012;48.896;9.192;2023-07-29T04:32:48;17.90;99.90
7934;DHT22;4012;48.896;9.192;2023-07-29T04:35:14;17.90;99.90
7934;DHT22;4012;48.896;9.192;2023-07-29T04:37:40;17.90;99.90
7934;DHT22;4012;48.896;9.192;2023-07-29T04:40:06;17.90;99.90
7934;DHT22;4012;48.896;9.192;2023-07-29T04:42:32;17.90;99.90
7934;DHT22;4012;48.896;9.192;2023-07-29T04:44:58;17.90;99.90
7934;DHT22;4012;48.896;9.192;2023-07-29T04:47:23;17.90;99.90
7934;DHT22;4012;48.896;9.192;2023-07-29T04:49:49;17.90;99.90
7934;DHT22;4012;48.896;9.192;2023-07-29T04:52:14;18.00;99.90
7934;DHT22;4012;48.896;9.192;2023-07-29T04:54:40;18.00;99.90
7934;DHT22;4012;48.896;9.192;2023-07-29T04:57:06;18.00;99.90
7934;DHT22;4012;48.896;9.192;2023-07-29T04:59:32;18.10;99.90
7934;DHT22;4012;48.896;9.192;2023-07-29T05:01:57;18.10;99.90
7934;DHT22;4012;48.896;9.192;2023-07-29T05:04:23;18.10;99.90
7934;DHT22;4012;48.896;9.192;2023-07-29T05:06:49;18.10;99.90
7934;DHT22;4012;48.896;9.192;2023-07-29T05:09:17;18.00;99.90
7934;DHT22;4012;48.896;9.192;2023-07-29T05:11:43;18.00;99.90
7934;DHT22;4012;48.896;9.192;2023-07-29T05:14:12;18.10;99.90
7934;DHT22;4012;48.896;9.192;2023-07-29T05:16:38;18.10;99.90
7934;DHT22;4012;48.896;9.192;2023-07-29T05:19:03;18.20;99.90
7934;DHT22;4012;48.896;9.192;2023-07-29T05:21:29;18.30;99.90
7934;DHT22;4012;48.896;9.192;2023-07-29T05:23:55;18.40;99.90
7934;DHT22;4012;48.896;9.192;2023-07-29T05:26:21;18.50;99.90
7934;DHT22;4012;48.896;9.192;2023-07-29T05:28:47;18.60;99.90
7934;DHT22;4012;48.896;9.192;2023-07-29T05:31:12;18.70;99.90
7934;DHT22;4012;48.896;9.192;2023-07-29T05:33:38;18.80;99.90
7934;DHT22;4012;48.896;9.192;2023-07-29T05:36:04;18.90;99.90
7934;DHT22;4012;48.896;9.192;2023-07-29T05:38:30;18.90;99.90
7934;DHT22;4012;48.896;9.192;2023-07-29T05:40:56;19.00;99.90
7934;DHT22;4012;48.896;9.192;2023-07-29T05:43:23;19.00;99.90
7934;DHT22;4012;48.896;9.192;2023-07-29T05:45:49;19.00;99.90
7934;DHT22;4012;48.896;9.192;2023-07-29T05:48:14;19.10;99.90
7934;DHT22;4012;48.896;9.192;2023-07-29T05:50:40;19.10;99.90
7934;DHT22;4012;48.896;9.192;2023-07-29T05:53:05;19.00;99.90
7934;DHT22;4012;48.896;9.192;2023-07-29T05:55:31;19.00;99.90
7934;DHT22;4012;48.896;9.192;2023-07-29T05:57:56;19.00;99.90
7934;DHT22;4012;48.896;9.192;2023-07-29T06:00:23;19.10;99.90
7934;DHT22;4012;48.896;9.192;2023-07-29T06:02:48;19.30;99.90
7934;DHT22;4012;48.896;9.192;2023-07-29T06:05:14;19.40;99.90
7934;DHT22;4012;48.896;9.192;2023-07-29T06:07:39;19.50;99.90
7934;DHT22;4012;48.896;9.192;2023-07-29T06:10:09;19.60;99.90
7934;DHT22;4012;48.896;9.192;2023-07-29T06:12:37;19.90;99.90
7934;DHT22;4012;48.896;9.192;2023-07-29T06:15:03;20.10;99.90
7934;DHT22;4012;48.896;9.192;2023-07-29T06:17:29;20.30;99.90
7934;DHT22;4012;48.896;9.192;2023-07-29T06:19:55;20.40;99.90
7934;DHT22;4012;48.896;9.192;2023-07-29T06:22:20;20.60;99.90
7934;DHT22;4012;48.896;9.192;2023-07-29T06:24:46;20.70;99.90
7934;DHT22;4012;48.896;9.192;2023-07-29T06:27:12;20.80;99.90
7934;DHT22;4012;48.896;9.192;2023-07-29T06:29:37;20.90;99.90
7934;DHT22;4012;48.896;9.192;2023-07-29T06:32:03;20.80;99.90
7934;DHT22;4012;48.896;9.192;2023-07-29T06:34:29;20.60;99.90
7934;DHT22;4012;48.896;9.192;2023-07-29T06:36:54;20.40;99.90
7934;DHT22;4012;48.896;9.192;2023-07-29T06:39:20;20.10;99.90
7934;DHT22;4012;48.896;9.192;2023-07-29T06:41:45;20.00;99.90
7934;DHT22;4012;48.896;9.192;2023-07-29T06:44:11;19.90;99.90
7934;DHT22;4012;48.896;9.192;2023-07-29T06:46:36;19.80;99.90
7934;DHT22;4012;48.896;9.192;2023-07-29T06:49:02;19.70;99.90
7934;DHT22;4012;48.896;9.192;2023-07-29T06:51:28;19.70;99.90
7934;DHT22;4012;48.896;9.192;2023-07-29T06:54:03;19.60;99.90
7934;DHT22;4012;48.896;9.192;2023-07-29T06:56:29;19.60;99.90
7934;DHT22;4012;48.896;9.192;2023-07-29T06:58:55;19.70;99.90
7934;DHT22;4012;48.896;9.192;2023-07-29T07:01:20;19.70;99.90
7934;DHT22;4012;48.896;9.192;2023-07-29T07:03:46;19.60;99.90
7934;DHT22;4012;48.896;9.192;2023-07-29T07:06:11;19.60;99.90
7934;DHT22;4012;48.896;9.192;2023-07-29T07:08:37;19.60;99.90
7934;DHT22;4012;48.896;9.192;2023-07-29T07:11:02;19.60;99.90
7934;DHT22;4012;48.896;9.192;2023-07-29T07:13:28;19.60;99.90
7934;DHT22;4012;48.896;9.192;2023-07-29T07:15:55;19.60;99.90
7934;DHT22;4012;48.896;9.192;2023-07-29T07:18:20;19.60;99.90
7934;DHT22;4012;48.896;9.192;2023-07-29T07:20:49;19.60;99.90
7934;DHT22;4012;48.896;9.192;2023-07-29T07:23:15;19.70;99.90
7934;DHT22;4012;48.896;9.192;2023-07-29T07:25:41;19.70;99.90
7934;DHT22;4012;48.896;9.192;2023-07-29T07:28:08;19.80;99.90
7934;DHT22;4012;48.896;9.192;2023-07-29T07:30:33;19.80;99.90
7934;DHT22;4012;48.896;9.192;2023-07-29T07:32:59;19.70;99.90
7934;DHT22;4012;48.896;9.192;2023-07-29T07:35:25;19.80;99.90
7934;DHT22;4012;48.896;9.192;2023-07-29T07:37:50;19.80;99.90
7934;DHT22;4012;48.896;9.192;2023-07-29T07:40:16;19.80;99.90
7934;DHT22;4012;48.896;9.192;2023-07-29T07:42:41;20.00;99.90
7934;DHT22;4012;48.896;9.192;2023-07-29T07:45:07;20.10;99.90
7934;DHT22;4012;48.896;9.192;2023-07-29T07:47:33;20.20;99.90
7934;DHT22;4012;48.896;9.192;2023-07-29T07:49:58;20.30;99.90
7934;DHT22;4012;48.896;9.192;2023-07-29T07:52:24;20.30;99.90
7934;DHT22;4012;48.896;9.192;2023-07-29T07:54:53;20.20;99.90
7934;DHT22;4012;48.896;9.192;2023-07-29T07:57:21;20.40;99.90
7934;DHT22;4012;48.896;9.192;2023-07-29T07:59:47;20.50;99.90
7934;DHT22;4012;48.896;9.192;2023-07-29T08:02:12;20.80;99.90
7934;DHT22;4012;48.896;9.192;2023-07-29T08:04:38;21.70;99.90
7934;DHT22;4012;48.896;9.192;2023-07-29T08:07:04;23.90;99.90
7934;DHT22;4012;48.896;9.192;2023-07-29T08:09:30;26.70;99.90
7934;DHT22;4012;48.896;9.192;2023-07-29T08:11:55;29.70;99.90
7934;DHT22;4012;48.896;9.192;2023-07-29T08:14:21;31.90;99.90
7934;DHT22;4012;48.896;9.192;2023-07-29T08:16:46;33.00;99.90
7934;DHT22;4012;48.896;9.192;2023-07-29T08:19:12;33.60;99.90
7934;DHT22;4012;48.896;9.192;2023-07-29T08:21:38;35.10;99.90
7934;DHT22;4012;48.896;9.192;2023-07-29T08:24:03;35.30;99.90
7934;DHT22;4012;48.896;9.192;2023-07-29T08:26:29;35.20;99.90
7934;DHT22;4012;48.896;9.192;2023-07-29T08:28:55;33.70;99.90
7934;DHT22;4012;48.896;9.192;2023-07-29T08:31:20;30.80;99.90
7934;DHT22;4012;48.896;9.192;2023-07-29T08:33:46;27.80;99.90
7934;DHT22;4012;48.896;9.192;2023-07-29T08:36:12;26.00;99.90
7934;DHT22;4012;48.896;9.192;2023-07-29T08:38:37;25.10;99.90
7934;DHT22;4012;48.896;9.192;2023-07-29T08:44:12;24.10;99.90
7934;DHT22;4012;48.896;9.192;2023-07-29T08:46:39;23.70;99.90
7934;DHT22;4012;48.896;9.192;2023-07-29T08:49:05;23.80;99.90
7934;DHT22;4012;48.896;9.192;2023-07-29T08:51:31;24.30;99.90
7934;DHT22;4012;48.896;9.192;2023-07-29T08:53:58;24.50;99.90
7934;DHT22;4012;48.896;9.192;2023-07-29T08:56:25;24.80;99.90
7934;DHT22;4012;48.896;9.192;2023-07-29T08:58:51;26.00;99.90
7934;DHT22;4012;48.896;9.192;2023-07-29T09:01:17;26.80;99.90
7934;DHT22;4012;48.896;9.192;2023-07-29T09:03:43;27.10;99.90
7934;DHT22;4012;48.896;9.192;2023-07-29T09:06:09;27.30;99.90
7934;DHT22;4012;48.896;9.192;2023-07-29T09:08:34;27.50;99.90
7934;DHT22;4012;48.896;9.192;2023-07-29T09:11:00;28.70;99.90
7934;DHT22;4012;48.896;9.192;2023-07-29T09:13:26;29.90;99.90
7934;DHT22;4012;48.896;9.192;2023-07-29T09:15:57;29.00;99.90
7934;DHT22;4012;48.896;9.192;2023-07-29T09:18:22;28.20;99.90
7934;DHT22;4012;48.896;9.192;2023-07-29T09:20:49;26.60;99.90
7934;DHT22;4012;48.896;9.192;2023-07-29T09:23:15;26.70;99.90
7934;DHT22;4012;48.896;9.192;2023-07-29T09:25:42;27.80;99.90
7934;DHT22;4012;48.896;9.192;2023-07-29T09:28:09;28.00;99.90
7934;DHT22;4012;48.896;9.192;2023-07-29T09:30:42;28.30;99.90
7934;DHT22;4012;48.896;9.192;2023-07-29T09:33:25;27.50;99.90
7934;DHT22;4012;48.896;9.192;2023-07-29T09:35:54;27.20;99.90
7934;DHT22;4012;48.896;9.192;2023-07-29T09:38:29;27.20;99.90
7934;DHT22;4012;48.896;9.192;2023-07-29T09:40:57;26.90;99.90
7934;DHT22;4012;48.896;9.192;2023-07-29T09:43:33;26.90;99.90
7934;DHT22;4012;48.896;9.192;2023-07-29T09:46:03;27.40;99.90
7934;DHT22;4012;48.896;9.192;2023-07-29T09:48:33;27.30;99.90
7934;DHT22;4012;48.896;9.192;2023-07-29T09:50:59;26.40;99.90
7934;DHT22;4012;48.896;9.192;2023-07-29T09:53:24;25.70;99.90
7934;DHT22;4012;48.896;9.192;2023-07-29T09:55:50;25.20;99.90
7934;DHT22;4012;48.896;9.192;2023-07-29T09:58:22;24.50;99.90
7934;DHT22;4012;48.896;9.192;2023-07-29T10:00:51;23.90;99.90
7934;DHT22;4012;48.896;9.192;2023-07-29T10:03:18;23.40;99.90
7934;DHT22;4012;48.896;9.192;2023-07-29T10:05:45;22.40;99.90
7934;DHT22;4012;48.896;9.192;2023-07-29T10:08:12;21.40;99.90
7934;DHT22;4012;48.896;9.192;2023-07-29T10:10:38;20.60;99.90
7934;DHT22;4012;48.896;9.192;2023-07-29T10:13:04;20.50;99.90
7934;DHT22;4012;48.896;9.192;2023-07-29T10:15:31;20.40;99.90
7934;DHT22;4012;48.896;9.192;2023-07-29T10:17:59;20.30;99.90
7934;DHT22;4012;48.896;9.192;2023-07-29T10:20:25;21.20;99.90
7934;DHT22;4012;48.896;9.192;2023-07-29T10:22:51;21.70;99.90
7934;DHT22;4012;48.896;9.192;2023-07-29T10:25:22;22.30;99.90
7934;DHT22;4012;48.896;9.192;2023-07-29T10:27:52;22.40;99.90
7934;DHT22;4012;48.896;9.192;2023-07-29T10:30:18;22.30;99.90
7934;DHT22;4012;48.896;9.192;2023-07-29T10:32:53;22.50;99.90
7934;DHT22;4012;48.896;9.192;2023-07-29T10:35:19;23.50;99.90
7934;DHT22;4012;48.896;9.192;2023-07-29T10:37:48;24.90;99.90
7934;DHT22;4012;48.896;9.192;2023-07-29T10:40:16;26.30;99.90
7934;DHT22;4012;48.896;9.192;2023-07-29T10:43:03;26.80;99.90
7934;DHT22;4012;48.896;9.192;2023-07-29T10:45:40;26.30;99.90
7934;DHT22;4012;48.896;9.192;2023-07-29T10:48:13;26.00;99.90
7934;DHT22;4012;48.896;9.192;2023-07-29T10:51:30;25.90;99.90
7934;DHT22;4012;48.896;9.192;2023-07-29T10:54:03;25.80;99.90
7934;DHT22;4012;48.896;9.192;2023-07-29T10:56:34;26.00;99.90
7934;DHT22;4012;48.896;9.192;2023-07-29T10:59:32;25.80;99.90
7934;DHT22;4012;48.896;9.192;2023-07-29T11:02:00;26.00;99.90
7934;DHT22;4012;48.896;9.192;2023-07-29T11:04:27;24.90;99.90
7934;DHT22;4012;48.896;9.192;2023-07-29T11:20:11;27.00;99.90
7934;DHT22;4012;48.896;9.192;2023-07-29T11:22:38;26.90;99.90
7934;DHT22;4012;48.896;9.192;2023-07-29T11:25:04;25.90;99.90
7934;DHT22;4012;48.896;9.192;2023-07-29T11:27:33;25.50;99.90
7934;DHT22;4012;48.896;9.192;2023-07-29T11:30:00;25.30;99.90
7934;DHT22;4012;48.896;9.192;2023-07-29T11:32:27;25.50;99.90
7934;DHT22;4012;48.896;9.192;2023-07-29T11:34:52;25.50;99.90
7934;DHT22;4012;48.896;9.192;2023-07-29T11:37:18;25.50;99.90
7934;DHT22;4012;48.896;9.192;2023-07-29T11:39:45;25.60;99.90
7934;DHT22;4012;48.896;9.192;2023-07-29T11:42:12;25.60;99.90
7934;DHT22;4012;48.896;9.192;2023-07-29T11:44:38;25.70;99.90
7934;DHT22;4012;48.896;9.192;2023-07-29T11:47:10;25.30;99.90
7934;DHT22;4012;48.896;9.192;2023-07-29T11:49:39;25.70;99.90
7934;DHT22;4012;48.896;9.192;2023-07-29T11:52:09;25.70;99.90
7934;DHT22;4012;48.896;9.192;2023-07-29T11:54:39;25.40;99.90
7934;DHT22;4012;48.896;9.192;2023-07-29T11:57:08;25.20;99.90
7934;DHT22;4012;48.896;9.192;2023-07-29T11:59:35;24.90;99.90
7934;DHT22;4012;48.896;9.192;2023-07-29T12:02:05;25.40;99.90
7934;DHT22;4012;48.896;9.192;2023-07-29T12:04:31;25.20;99.90
7934;DHT22;4012;48.896;9.192;2023-07-29T12:06:58;25.60;99.90
7934;DHT22;4012;48.896;9.192;2023-07-29T12:09:24;25.50;99.90
7934;DHT22;4012;48.896;9.192;2023-07-29T12:11:50;25.40;99.90
7934;DHT22;4012;48.896;9.192;2023-07-29T12:14:17;25.50;99.90
7934;DHT22;4012;48.896;9.192;2023-07-29T12:16:43;25.50;99.90
7934;DHT22;4012;48.896;9.192;2023-07-29T12:19:12;25.60;99.90
7934;DHT22;4012;48.896;9.192;2023-07-29T12:21:40;25.50;99.90
7934;DHT22;4012;48.896;9.192;2023-07-29T12:24:05;25.90;99.90
7934;DHT22;4012;48.896;9.192;2023-07-29T12:26:31;26.20;99.90
7934;DHT22;4012;48.896;9.192;2023-07-29T12:28:57;26.20;99.90
7934;DHT22;4012;48.896;9.192;2023-07-29T12:31:31;26.40;99.90
7934;DHT22;4012;48.896;9.192;2023-07-29T12:33:57;26.60;99.90
7934;DHT22;4012;48.896;9.192;2023-07-29T12:36:40;26.40;99.90
7934;DHT22;4012;48.896;9.192;2023-07-29T12:39:05;26.00;99.90
7934;DHT22;4012;48.896;9.192;2023-07-29T12:41:31;26.10;99.90
7934;DHT22;4012;48.896;9.192;2023-07-29T12:43:56;26.00;99.90
7934;DHT22;4012;48.896;9.192;2023-07-29T12:46:22;26.40;99.90
7934;DHT22;4012;48.896;9.192;2023-07-29T12:48:54;26.90;99.90
7934;DHT22;4012;48.896;9.192;2023-07-29T12:51:19;26.60;99.90
7934;DHT22;4012;48.896;9.192;2023-07-29T12:53:45;26.50;99.90
7934;DHT22;4012;48.896;9.192;2023-07-29T12:56:10;26.40;99.90
7934;DHT22;4012;48.896;9.192;2023-07-29T12:58:36;26.50;99.90
7934;DHT22;4012;48.896;9.192;2023-07-29T13:01:01;26.70;99.90
7934;DHT22;4012;48.896;9.192;2023-07-29T13:03:27;26.50;99.90
7934;DHT22;4012;48.896;9.192;2023-07-29T13:05:54;26.60;99.90
7934;DHT22;4012;48.896;9.192;2023-07-29T13:08:20;26.70;99.90
7934;DHT22;4012;48.896;9.192;2023-07-29T13:10:48;26.60;99.90
7934;DHT22;4012;48.896;9.192;2023-07-29T13:13:14;26.70;99.90
7934;DHT22;4012;48.896;9.192;2023-07-29T13:15:39;26.70;99.90
7934;DHT22;4012;48.896;9.192;2023-07-29T13:18:05;27.00;99.90
7934;DHT22;4012;48.896;9.192;2023-07-29T13:20:31;26.80;99.90
7934;DHT22;4012;48.896;9.192;2023-07-29T13:22:56;27.00;99.90
7934;DHT22;4012;48.896;9.192;2023-07-29T13:25:22;27.50;99.90
7934;DHT22;4012;48.896;9.192;2023-07-29T13:27:47;27.60;99.90
7934;DHT22;4012;48.896;9.192;2023-07-29T13:30:13;27.30;99.90
7934;DHT22;4012;48.896;9.192;2023-07-29T13:32:39;27.40;99.90
7934;DHT22;4012;48.896;9.192;2023-07-29T13:35:04;27.30;99.90
7934;DHT22;4012;48.896;9.192;2023-07-29T13:37:30;27.00;99.90
7934;DHT22;4012;48.896;9.192;2023-07-29T13:39:55;26.90;99.90
7934;DHT22;4012;48.896;9.192;2023-07-29T13:42:21;26.80;99.90
7934;DHT22;4012;48.896;9.192;2023-07-29T13:44:47;26.60;99.90
7934;DHT22;4012;48.896;9.192;2023-07-29T13:47:12;26.70;99.90
7934;DHT22;4012;48.896;9.192;2023-07-29T13:49:38;26.90;99.90
7934;DHT22;4012;48.896;9.192;2023-07-29T13:52:03;26.80;99.90
7934;DHT22;4012;48.896;9.192;2023-07-29T13:54:29;26.50;99.90
7934;DHT22;4012;48.896;9.192;2023-07-29T13:56:55;26.60;99.90
7934;DHT22;4012;48.896;9.192;2023-07-29T13:59:20;26.60;99.90
7934;DHT22;4012;48.896;9.192;2023-07-29T14:01:46;27.00;99.90
7934;DHT22;4012;48.896;9.192;2023-07-29T14:04:11;27.00;99.90
7934;DHT22;4012;48.896;9.192;2023-07-29T14:06:37;27.00;99.90
7934;DHT22;4012;48.896;9.192;2023-07-29T14:09:02;27.10;99.90
7934;DHT22;4012;48.896;9.192;2023-07-29T14:11:28;27.40;99.90
7934;DHT22;4012;48.896;9.192;2023-07-29T14:13:54;27.30;99.90
7934;DHT22;4012;48.896;9.192;2023-07-29T14:16:22;27.40;99.90
7934;DHT22;4012;48.896;9.192;2023-07-29T14:18:48;27.20;99.90
7934;DHT22;4012;48.896;9.192;2023-07-29T14:21:13;27.00;99.90
7934;DHT22;4012;48.896;9.192;2023-07-29T14:23:39;26.80;99.90
7934;DHT22;4012;48.896;9.192;2023-07-29T14:26:04;26.90;99.90
7934;DHT22;4012;48.896;9.192;2023-07-29T14:28:30;26.90;99.90
7934;DHT22;4012;48.896;9.192;2023-07-29T14:30:56;27.00;99.90
7934;DHT22;4012;48.896;9.192;2023-07-29T14:33:21;27.10;99.90
7934;DHT22;4012;48.896;9.192;2023-07-29T14:35:47;27.00;99.90
7934;DHT22;4012;48.896;9.192;2023-07-29T14:38:12;26.60;99.90
7934;DHT22;4012;48.896;9.192;2023-07-29T14:40:38;26.40;99.90
7934;DHT22;4012;48.896;9.192;2023-07-29T14:43:04;26.50;99.90
7934;DHT22;4012;48.896;9.192;2023-07-29T14:45:29;26.60;99.90
7934;DHT22;4012;48.896;9.192;2023-07-29T14:47:55;26.60;99.90
7934;DHT22;4012;48.896;9.192;2023-07-29T14:50:23;26.70;99.90
7934;DHT22;4012;48.896;9.192;2023-07-29T14:52:49;26.90;99.90
7934;DHT22;4012;48.896;9.192;2023-07-29T14:55:14;26.70;99.90
7934;DHT22;4012;48.896;9.192;2023-07-29T14:57:40;26.80;99.90
7934;DHT22;4012;48.896;9.192;2023-07-29T15:00:07;27.00;99.90
7934;DHT22;4012;48.896;9.192;2023-07-29T15:02:32;26.80;99.90
7934;DHT22;4012;48.896;9.192;2023-07-29T15:04:58;26.70;99.90
7934;DHT22;4012;48.896;9.192;2023-07-29T15:07:24;26.40;99.90
7934;DHT22;4012;48.896;9.192;2023-07-29T15:09:49;26.60;99.90
7934;DHT22;4012;48.896;9.192;2023-07-29T15:12:15;26.90;99.90
7934;DHT22;4012;48.896;9.192;2023-07-29T15:14:40;26.80;99.90
7934;DHT22;4012;48.896;9.192;2023-07-29T15:17:06;26.70;99.90
7934;DHT22;4012;48.896;9.192;2023-07-29T15:19:32;26.90;99.90
7934;DHT22;4012;48.896;9.192;2023-07-29T15:21:57;26.80;99.90
7934;DHT22;4012;48.896;9.192;2023-07-29T15:24:23;27.00;99.90
7934;DHT22;4012;48.896;9.192;2023-07-29T15:26:48;26.70;99.90
7934;DHT22;4012;48.896;9.192;2023-07-29T15:29:14;27.00;99.90
7934;DHT22;4012;48.896;9.192;2023-07-29T15:31:40;27.30;99.90
7934;DHT22;4012;48.896;9.192;2023-07-29T15:34:07;27.40;99.90
7934;DHT22;4012;48.896;9.192;2023-07-29T15:36:32;27.00;99.90
7934;DHT22;4012;48.896;9.192;2023-07-29T15:38:58;27.20;99.90
7934;DHT22;4012;48.896;9.192;2023-07-29T15:41:24;27.10;99.90
7934;DHT22;4012;48.896;9.192;2023-07-29T15:43:49;27.00;99.90
7934;DHT22;4012;48.896;9.192;2023-07-29T15:46:15;26.50;99.90
7934;DHT22;4012;48.896;9.192;2023-07-29T15:48:40;26.60;99.90
7934;DHT22;4012;48.896;9.192;2023-07-29T15:51:06;26.50;99.90
7934;DHT22;4012;48.896;9.192;2023-07-29T15:53:33;26.80;99.90
7934;DHT22;4012;48.896;9.192;2023-07-29T15:55:59;26.90;99.90
7934;DHT22;4012;48.896;9.192;2023-07-29T15:58:24;26.90;99.90
7934;DHT22;4012;48.896;9.192;2023-07-29T16:00:50;26.60;99.90
7934;DHT22;4012;48.896;9.192;2023-07-29T16:03:16;26.80;99.90
7934;DHT22;4012;48.896;9.192;2023-07-29T16:05:41;26.70;99.90
7934;DHT22;4012;48.896;9.192;2023-07-29T16:08:07;26.60;99.90
7934;DHT22;4012;48.896;9.192;2023-07-29T16:10:32;26.70;99.90
7934;DHT22;4012;48.896;9.192;2023-07-29T16:12:58;26.80;99.90
7934;DHT22;4012;48.896;9.192;2023-07-29T16:15:25;26.50;99.90
7934;DHT22;4012;48.896;9.192;2023-07-29T16:17:51;26.50;99.90
7934;DHT22;4012;48.896;9.192;2023-07-29T16:20:18;26.50;99.90
7934;DHT22;4012;48.896;9.192;2023-07-29T16:22:44;26.70;99.90
7934;DHT22;4012;48.896;9.192;2023-07-29T16:25:09;26.90;99.90